Time;durP1;ratioP1;P1;durP2;ratioP2;P2;SDS_P1;SDS_P2;PMS_P1;PMS_P2;Temp;Humidity;BMP_temperature;BMP_pressure;BME280_temperature;BME280_humidity;BME280_pressure;Samples;Min_cycle;Max_cycle;Signal;HPM_P1;HPM_P2
2023/09/02 00:02:03;;;;;;;1.50;1.40;;;20.10;74.00;21.00;100882.00;;;;5026496;28;20750;-53
2023/09/02 00:04:29;;;;;;;1.30;1.30;;;20.10;74.00;21.00;100881.00;;;;5021248;28;20189;-52
2023/09/02 00:06:55;;;;;;;1.50;1.40;;;20.00;74.00;21.00;100888.00;;;;5028107;28;20234;-53
2023/09/02 00:09:21;;;;;;;1.47;1.37;;;20.10;74.10;20.90;100884.00;;;;5027581;28;20187;-53
2023/09/02 00:11:46;;;;;;;1.33;1.30;;;20.00;73.90;21.00;100886.00;;;;5027688;28;20203;-53
2023/09/02 00:14:12;;;;;;;1.43;1.33;;;20.10;74.00;21.00;100877.00;;;;5028093;28;20664;-53
2023/09/02 00:16:38;;;;;;;1.27;1.20;;;20.10;73.90;21.00;100886.00;;;;5028082;28;20187;-53
2023/09/02 00:19:04;;;;;;;1.17;1.17;;;20.00;73.70;21.00;100879.00;;;;5027690;28;20281;-53
2023/09/02 00:21:32;;;;;;;1.27;1.27;;;20.00;73.80;21.00;100874.00;;;;5027753;28;20281;-52
2023/09/02 00:24:02;;;;;;;1.23;1.23;;;20.10;73.90;20.90;100881.00;;;;5027788;28;20182;-53
2023/09/02 00:26:30;;;;;;;1.10;1.10;;;20.00;73.70;20.90;100874.00;;;;5027778;28;20221;-53
2023/09/02 00:28:55;;;;;;;1.60;1.50;;;20.00;73.80;20.90;100880.00;;;;5019164;28;20630;-53
2023/09/02 00:31:21;;;;;;;1.60;1.50;;;20.00;73.80;20.90;100879.00;;;;5019709;28;20214;-52
2023/09/02 00:33:47;;;;;;;1.47;1.40;;;20.00;73.80;20.90;100884.00;;;;5027623;28;20190;-52
2023/09/02 00:36:14;;;;;;;1.50;1.40;;;20.00;73.80;20.90;100885.00;;;;5027628;28;20186;-54
2023/09/02 00:38:40;;;;;;;1.30;1.20;;;20.00;73.70;20.90;100891.00;;;;5027334;28;20186;-53
2023/09/02 00:41:07;;;;;;;1.10;1.10;;;20.00;73.70;20.90;100878.00;;;;5009865;28;20210;-53
2023/09/02 00:43:33;;;;;;;1.20;1.20;;;20.00;73.70;20.90;100878.00;;;;5010072;28;20246;-53
2023/09/02 00:45:59;;;;;;;1.07;1.07;;;20.00;73.70;20.90;100871.00;;;;5010124;28;20186;-53
2023/09/02 00:48:25;;;;;;;1.30;1.20;;;20.00;73.70;20.90;100869.00;;;;5010014;28;20590;-52
2023/09/02 00:50:51;;;;;;;1.10;1.10;;;20.00;73.70;20.90;100860.00;;;;5027445;28;20285;-53
2023/09/02 00:53:18;;;;;;;1.20;1.20;;;20.00;73.70;20.90;100876.00;;;;5027444;28;20207;-52
2023/09/02 00:55:45;;;;;;;1.30;1.20;;;20.00;73.70;20.90;100859.00;;;;5027799;28;20191;-53
2023/09/02 00:58:11;;;;;;;1.30;1.30;;;20.00;73.70;20.90;100876.00;;;;5010138;28;20186;-52
2023/09/02 01:00:37;;;;;;;1.23;1.23;;;19.90;73.60;20.90;100888.00;;;;5027275;28;20252;-52
2023/09/02 01:03:03;;;;;;;1.10;1.07;;;20.00;74.50;20.90;100874.00;;;;5010148;28;20206;-53
2023/09/02 01:05:29;;;;;;;1.50;1.40;;;20.00;73.70;20.90;100885.00;;;;5027622;28;20178;-53
2023/09/02 01:07:55;;;;;;;1.10;1.10;;;20.00;73.70;20.90;100877.00;;;;5009848;28;20194;-53
2023/09/02 01:10:21;;;;;;;1.07;1.07;;;19.90;73.60;20.90;100880.00;;;;5009553;28;20665;-53
2023/09/02 01:12:46;;;;;;;1.30;1.30;;;19.90;73.60;20.80;100887.00;;;;5010022;28;20301;-52
2023/09/02 01:15:12;;;;;;;1.40;1.30;;;19.90;73.60;20.80;100883.00;;;;5009960;28;20186;-52
2023/09/02 01:17:38;;;;;;;1.07;1.07;;;19.90;73.60;20.80;100889.00;;;;5027363;28;20194;-53
2023/09/02 01:20:05;;;;;;;1.10;1.10;;;19.90;73.60;20.80;100876.00;;;;5026827;28;20313;-54
2023/09/02 01:23:02;;;;;;;1.17;1.17;;;19.90;73.60;20.80;100885.00;;;;5009956;28;20262;-53
2023/09/02 01:26:00;;;;;;;1.60;1.50;;;19.90;73.60;20.80;100882.00;;;;5012478;28;20277;-52
2023/09/02 01:28:29;;;;;;;1.23;1.13;;;19.90;73.70;20.80;100878.00;;;;5006402;28;20235;-53
2023/09/02 01:30:55;;;;;;;1.10;1.10;;;19.90;73.60;20.80;100884.00;;;;5031323;28;20210;-57
2023/09/02 01:33:21;;;;;;;1.40;1.37;;;19.90;73.60;20.80;100894.00;;;;5034066;28;20260;-52
2023/09/02 01:35:47;;;;;;;1.20;1.20;;;19.80;73.60;20.80;100910.00;;;;5030633;28;20178;-53
2023/09/02 01:38:14;;;;;;;1.43;1.33;;;19.90;73.60;20.80;100899.00;;;;5029904;28;20254;-53
2023/09/02 01:40:40;;;;;;;1.20;1.20;;;19.90;73.60;20.80;100890.00;;;;5014321;28;20206;-52
2023/09/02 01:43:05;;;;;;;1.00;1.00;;;19.90;73.60;20.70;100900.00;;;;5015310;28;20202;-52
2023/09/02 01:45:34;;;;;;;1.40;1.30;;;19.90;73.50;20.80;100898.00;;;;5021369;28;20223;-53
2023/09/02 01:47:59;;;;;;;1.50;1.40;;;19.90;73.60;20.80;100907.00;;;;5013336;28;20255;-53
2023/09/02 01:50:27;;;;;;;1.23;1.23;;;19.90;73.60;20.70;100901.00;;;;5012612;28;20672;-54
2023/09/02 01:52:54;;;;;;;1.27;1.20;;;19.90;73.60;20.70;100898.00;;;;5012951;28;20182;-52
2023/09/02 01:55:21;;;;;;;1.00;1.00;;;19.90;73.50;20.70;100903.00;;;;5009397;28;20733;-52
2023/09/02 01:57:47;;;;;;;1.30;1.30;;;19.80;73.40;20.70;100910.00;;;;5025100;28;20191;-53
2023/09/02 02:00:13;;;;;;;1.00;1.00;;;19.90;73.50;20.70;100903.00;;;;5012334;28;20213;-53
2023/09/02 02:02:39;;;;;;;1.20;1.20;;;19.90;73.60;20.70;100907.00;;;;5024171;28;20743;-53
2023/09/02 02:05:13;;;;;;;1.10;1.10;;;19.80;73.40;20.70;100902.00;;;;5028678;28;20220;-52
2023/09/02 02:07:41;;;;;;;1.13;1.13;;;19.80;73.40;20.70;100905.00;;;;5012941;28;20181;-53
2023/09/02 02:10:11;;;;;;;0.83;0.83;;;19.80;73.50;20.70;100895.00;;;;5007140;28;20199;-52
2023/09/02 02:12:40;;;;;;;1.13;1.13;;;19.80;73.40;20.70;100905.00;;;;5006890;28;20676;-52
2023/09/02 02:15:10;;;;;;;1.50;1.40;;;19.80;73.50;20.60;100905.00;;;;5020111;28;20185;-53
2023/09/02 02:17:37;;;;;;;1.40;1.30;;;19.80;73.50;20.60;100906.00;;;;5029603;28;20644;-52
2023/09/02 02:20:04;;;;;;;1.10;1.10;;;19.80;73.50;20.60;100907.00;;;;5018380;28;20186;-53
2023/09/02 02:22:29;;;;;;;1.17;1.17;;;19.80;73.50;20.60;100905.00;;;;4992469;28;20234;-53
2023/09/02 02:24:55;;;;;;;1.00;1.00;;;19.80;73.40;20.60;100907.00;;;;5026726;28;20270;-52
2023/09/02 02:27:22;;;;;;;1.20;1.20;;;19.80;73.50;20.60;100911.00;;;;5030048;28;20181;-52
2023/09/02 02:29:47;;;;;;;1.23;1.23;;;19.80;73.80;20.60;100919.00;;;;5029744;28;20185;-53
2023/09/02 02:32:13;;;;;;;0.90;0.90;;;19.80;73.50;20.60;100906.00;;;;5029804;28;20276;-53
2023/09/02 02:34:39;;;;;;;1.10;1.10;;;19.80;73.50;20.60;100912.00;;;;5029036;28;20216;-53
2023/09/02 02:37:04;;;;;;;1.27;1.27;;;19.70;73.30;20.60;100906.00;;;;4992430;28;20182;-54
2023/09/02 02:39:30;;;;;;;1.13;1.13;;;19.80;73.40;20.60;100906.00;;;;5023056;28;20197;-52
2023/09/02 02:41:56;;;;;;;1.20;1.20;;;19.70;73.30;20.60;100924.00;;;;5029412;28;20220;-53
2023/09/02 02:44:22;;;;;;;1.10;1.10;;;19.80;73.40;20.60;100910.00;;;;5025822;28;20214;-52
2023/09/02 02:46:47;;;;;;;0.97;0.97;;;19.80;73.40;20.60;100922.00;;;;5017070;28;20181;-54
2023/09/02 02:49:13;;;;;;;1.20;1.20;;;19.70;73.30;20.40;100922.00;;;;5028971;28;20179;-52
2023/09/02 02:51:39;;;;;;;1.20;1.20;;;19.70;73.30;20.60;100924.00;;;;5029441;28;20202;-53
2023/09/02 02:54:05;;;;;;;1.20;1.20;;;19.70;73.30;20.60;100921.00;;;;5028941;28;20179;-52
2023/09/02 02:56:30;;;;;;;1.00;1.00;;;19.70;73.30;20.60;100920.00;;;;5019098;28;20183;-53
2023/09/02 02:58:56;;;;;;;0.87;0.87;;;19.70;73.30;20.60;100918.00;;;;5009479;28;20186;-53
2023/09/02 03:01:22;;;;;;;1.07;1.07;;;19.70;73.30;20.60;100915.00;;;;5029673;28;20299;-52
2023/09/02 03:03:48;;;;;;;1.10;1.10;;;19.80;73.40;20.60;100923.00;;;;5022472;28;20170;-52
2023/09/02 03:06:20;;;;;;;1.10;1.10;;;19.70;73.30;20.60;100924.00;;;;5013003;28;20648;-53
2023/09/02 03:08:46;;;;;;;1.20;1.20;;;19.70;73.30;20.70;100922.00;;;;5030695;28;20190;-53
2023/09/02 03:11:12;;;;;;;1.20;1.20;;;19.70;73.30;20.60;100923.00;;;;5030565;28;20206;-53
2023/09/02 03:13:37;;;;;;;1.03;1.03;;;19.70;73.30;20.60;100935.00;;;;5030620;28;20186;-55
2023/09/02 03:16:03;;;;;;;1.20;1.20;;;19.70;73.40;20.60;100946.00;;;;5030238;28;20193;-53
2023/09/02 03:18:29;;;;;;;1.00;0.90;;;19.70;73.30;20.60;100943.00;;;;5030390;28;20261;-53
2023/09/02 03:21:03;;;;;;;1.00;1.00;;;19.70;73.30;20.60;100930.00;;;;5012220;28;20220;-53
2023/09/02 03:23:29;;;;;;;1.20;1.20;;;19.70;73.30;20.60;100931.00;;;;5013839;28;20228;-53
2023/09/02 03:25:55;;;;;;;1.03;1.03;;;19.70;73.30;20.60;100929.00;;;;5030575;28;20216;-52
2023/09/02 03:28:21;;;;;;;1.00;1.00;;;19.70;74.10;20.60;100936.00;;;;5036143;28;20201;-53
2023/09/02 03:30:46;;;;;;;1.23;1.20;;;19.70;73.20;20.60;100929.00;;;;5035118;28;20539;-52
2023/09/02 03:33:14;;;;;;;1.20;1.20;;;19.70;73.20;20.60;100871.00;;;;5031040;28;20190;-53
2023/09/02 03:35:40;;;;;;;1.30;1.20;;;19.70;73.30;20.60;100939.00;;;;5027011;28;20914;-53
2023/09/02 03:38:06;;;;;;;1.20;1.10;;;19.70;73.30;20.50;100941.00;;;;5025054;28;20301;-52
2023/09/02 03:40:33;;;;;;;0.90;0.90;;;19.60;73.30;20.60;100934.00;;;;5030891;28;20208;-53
2023/09/02 03:42:58;;;;;;;4.63;1.70;;;19.60;73.20;20.60;100944.00;;;;5038087;28;20213;-53
2023/09/02 03:45:24;;;;;;;1.13;1.10;;;19.70;73.30;20.60;100946.00;;;;5034597;28;20257;-52
2023/09/02 03:47:50;;;;;;;1.00;1.00;;;19.70;73.30;20.60;100958.00;;;;5030522;28;20270;-52
2023/09/02 03:50:26;;;;;;;1.50;1.40;;;19.70;73.40;20.60;100941.00;;;;5029442;28;20202;-53
2023/09/02 03:52:52;;;;;;;1.00;1.00;;;19.60;73.20;20.60;100943.00;;;;5029692;28;20668;-53
2023/09/02 03:55:17;;;;;;;1.30;1.20;;;19.60;73.30;20.60;100939.00;;;;5011322;28;20281;-53
2023/09/02 03:57:43;;;;;;;1.83;1.30;;;19.60;73.30;20.60;100950.00;;;;5029263;28;20213;-52
2023/09/02 04:00:10;;;;;;;1.20;1.20;;;19.60;73.30;20.50;100946.00;;;;5029332;28;20780;-52
2023/09/02 04:02:35;;;;;;;1.40;1.40;;;19.60;73.30;20.60;100954.00;;;;5022654;28;20220;-53
2023/09/02 04:05:03;;;;;;;1.30;1.30;;;19.60;73.30;20.50;100939.00;;;;5029234;28;20183;-52
2023/09/02 04:07:29;;;;;;;1.17;1.17;;;19.60;73.30;20.50;100936.00;;;;5028592;28;20182;-52
2023/09/02 04:09:56;;;;;;;1.23;1.23;;;19.60;73.30;20.50;100943.00;;;;5026069;28;20567;-52
2023/09/02 04:12:22;;;;;;;3.33;1.23;;;19.60;73.30;20.60;100939.00;;;;5028828;28;20742;-54
2023/09/02 04:14:48;;;;;;;2.10;1.30;;;19.60;73.30;20.50;100944.00;;;;5011387;28;20193;-53
2023/09/02 04:17:14;;;;;;;1.83;1.40;;;19.60;73.30;20.50;100935.00;;;;5028285;28;20217;-53
2023/09/02 04:19:40;;;;;;;1.73;1.50;;;19.60;73.40;20.50;100932.00;;;;5028895;28;20244;-52
2023/09/02 04:22:05;;;;;;;2.00;1.23;;;19.60;73.40;20.50;100936.00;;;;5028596;28;20577;-53
2023/09/02 04:24:31;;;;;;;5.37;1.50;;;19.60;73.50;20.50;100937.00;;;;5029285;28;20635;-53
2023/09/02 04:26:57;;;;;;;1.60;1.50;;;19.60;73.50;20.50;100941.00;;;;5028328;28;20613;-53
2023/09/02 04:29:23;;;;;;;3.30;1.60;;;19.60;73.50;20.50;100936.00;;;;5028665;28;20231;-53
2023/09/02 04:31:49;;;;;;;4.40;1.60;;;19.60;73.70;20.50;100938.00;;;;5028705;28;20229;-53
2023/09/02 04:34:14;;;;;;;4.80;1.70;;;19.60;73.70;20.50;100954.00;;;;5028788;28;20196;-53
2023/09/02 04:36:40;;;;;;;4.73;2.07;;;19.60;73.70;20.50;100948.00;;;;5028354;28;20189;-53
2023/09/02 04:39:06;;;;;;;8.13;2.47;;;19.60;73.70;20.50;100954.00;;;;5028486;28;20194;-53
2023/09/02 04:41:32;;;;;;;7.53;2.10;;;19.60;73.80;20.50;100964.00;;;;5028413;28;20714;-52
2023/09/02 04:43:58;;;;;;;6.73;1.97;;;19.50;73.80;20.50;100962.00;;;;5011232;28;20186;-51
2023/09/02 04:46:24;;;;;;;10.40;2.30;;;19.50;73.90;20.50;100956.00;;;;5028338;28;20192;-52
2023/09/02 04:48:50;;;;;;;8.63;2.20;;;19.50;74.00;20.50;100970.00;;;;5028381;28;20186;-53
2023/09/02 04:51:16;;;;;;;5.87;2.10;;;19.50;74.00;20.50;100970.00;;;;5028248;28;20212;-53
2023/09/02 04:53:41;;;;;;;7.63;2.20;;;19.50;74.10;20.50;100969.00;;;;5028780;28;20183;-52
2023/09/02 04:56:07;;;;;;;6.70;2.50;;;19.50;74.10;20.50;100975.00;;;;5028830;28;20223;-53
2023/09/02 04:58:33;;;;;;;7.07;1.90;;;19.50;74.20;20.50;100978.00;;;;5011238;28;20192;-52
2023/09/02 05:01:12;;;;;;;6.57;2.20;;;19.50;74.10;20.50;100974.00;;;;5028477;28;20644;-52
2023/09/02 05:03:38;;;;;;;6.40;1.90;;;19.50;74.20;20.50;100971.00;;;;5028549;28;20267;-52
2023/09/02 05:06:05;;;;;;;7.70;1.93;;;19.50;74.30;20.50;100972.00;;;;5027081;28;20262;-56
2023/09/02 05:08:34;;;;;;;5.67;2.07;;;19.50;74.20;20.50;100965.00;;;;5030522;28;20179;-52
2023/09/02 05:11:00;;;;;;;5.00;1.90;;;19.50;74.20;20.50;100956.00;;;;5031987;28;20280;-53
2023/09/02 05:13:25;;;;;;;4.13;1.90;;;19.50;74.20;20.50;100958.00;;;;5025269;28;20183;-53
2023/09/02 05:15:51;;;;;;;5.60;1.97;;;19.50;74.20;20.50;100954.00;;;;5030908;28;20195;-53
2023/09/02 05:18:17;;;;;;;5.50;2.00;;;19.50;74.20;20.50;100967.00;;;;5031758;28;20226;-53
2023/09/02 05:20:43;;;;;;;5.93;1.90;;;19.50;74.20;20.50;100965.00;;;;5022939;28;20237;-53
2023/09/02 05:23:09;;;;;;;4.53;1.97;;;19.50;74.20;20.50;100967.00;;;;5032239;28;20236;-53
2023/09/02 05:25:34;;;;;;;5.70;1.67;;;19.50;74.10;20.50;100970.00;;;;5039858;28;20186;-55
2023/09/02 05:28:00;;;;;;;4.67;2.00;;;19.50;74.10;20.50;100962.00;;;;5037224;28;20183;-52
2023/09/02 05:30:26;;;;;;;3.70;1.90;;;19.50;74.10;20.50;100964.00;;;;5032557;28;20222;-52
2023/09/02 05:32:52;;;;;;;3.57;2.00;;;19.50;74.20;20.50;100965.00;;;;5033773;28;20191;-53
2023/09/02 05:35:17;;;;;;;5.77;1.80;;;19.50;74.10;20.50;100963.00;;;;5031930;28;20201;-53
2023/09/02 05:37:43;;;;;;;4.43;1.87;;;19.50;74.10;20.50;100973.00;;;;5025398;28;20189;-52
2023/09/02 05:40:10;;;;;;;3.53;1.90;;;19.50;74.20;20.50;100978.00;;;;5039938;28;20211;-53
2023/09/02 05:42:35;;;;;;;3.23;1.63;;;19.50;74.20;20.50;100984.00;;;;5034581;28;20759;-52
2023/09/02 05:45:01;;;;;;;5.87;1.83;;;19.50;74.10;20.50;100983.00;;;;5031926;28;20186;-52
2023/09/02 05:47:27;;;;;;;2.23;1.60;;;19.50;74.20;20.50;100991.00;;;;4997621;28;20229;-52
2023/09/02 05:49:53;;;;;;;2.83;1.50;;;19.50;74.10;20.50;100993.00;;;;5031649;28;20190;-52
2023/09/02 05:52:18;;;;;;;3.47;1.70;;;19.50;74.10;20.50;100991.00;;;;5031538;28;20192;-52
2023/09/02 05:54:44;;;;;;;2.80;1.63;;;19.50;74.20;20.50;101000.00;;;;5031749;28;20191;-52
2023/09/02 05:57:10;;;;;;;3.43;1.87;;;19.50;74.20;20.50;100985.00;;;;5031309;28;20189;-52
2023/09/02 05:59:35;;;;;;;2.23;1.67;;;19.50;74.20;20.50;101004.00;;;;5031200;28;20190;-52
2023/09/02 06:02:01;;;;;;;3.70;1.73;;;19.40;74.00;20.50;100998.00;;;;5025270;28;20688;-52
2023/09/02 06:04:27;;;;;;;3.13;1.60;;;19.50;74.10;20.50;101008.00;;;;5031483;28;20209;-51
2023/09/02 06:06:53;;;;;;;2.53;1.40;;;19.50;74.20;20.50;101006.00;;;;5031024;28;20190;-52
2023/09/02 06:09:19;;;;;;;2.30;1.63;;;19.40;74.10;20.50;101004.00;;;;5024683;28;20220;-53
2023/09/02 06:11:45;;;;;;;3.60;1.60;;;19.50;74.20;20.50;101006.00;;;;5022788;28;20634;-52
2023/09/02 06:14:11;;;;;;;2.50;1.70;;;19.50;74.10;20.50;101005.00;;;;5017749;28;20206;-52
2023/09/02 06:16:36;;;;;;;1.77;1.53;;;19.50;74.10;20.50;101003.00;;;;5030764;28;20188;-53
2023/09/02 06:19:02;;;;;;;2.97;1.47;;;19.40;74.10;20.50;101010.00;;;;5012952;28;20655;-52
2023/09/02 06:21:28;;;;;;;2.40;1.73;;;19.40;74.10;20.50;101004.00;;;;5019765;28;20309;-52
2023/09/02 06:23:53;;;;;;;2.30;1.60;;;19.40;74.00;20.50;101013.00;;;;5018753;28;20177;-52
2023/09/02 06:26:19;;;;;;;1.40;1.30;;;19.40;74.00;20.50;101021.00;;;;5011853;28;20179;-51
2023/09/02 06:28:45;;;;;;;1.53;1.43;;;19.50;74.10;20.50;101011.00;;;;5025255;28;20656;-52
2023/09/02 06:31:11;;;;;;;1.60;1.50;;;19.40;74.10;20.50;101011.00;;;;5023752;28;20195;-53
2023/09/02 06:33:37;;;;;;;1.63;1.50;;;19.50;74.10;20.50;101021.00;;;;5024831;28;20186;-52
2023/09/02 06:36:12;;;;;;;2.60;1.67;;;19.40;74.10;20.50;101022.00;;;;5029876;28;20182;-52
2023/09/02 06:38:38;;;;;;;1.97;1.43;;;19.50;74.30;20.50;101020.00;;;;5024728;28;20182;-52
2023/09/02 06:41:15;;;;;;;1.40;1.30;;;19.50;74.40;20.50;101016.00;;;;5030186;28;20203;-52
2023/09/02 06:43:41;;;;;;;2.43;1.77;;;19.50;74.50;20.40;101030.00;;;;5025036;28;20175;-52
2023/09/02 06:46:19;;;;;;;5.23;1.70;;;19.40;74.40;20.40;101034.00;;;;5026704;28;20248;-52
2023/09/02 06:48:45;;;;;;;1.37;1.27;;;19.40;74.40;20.50;101034.00;;;;5030434;28;20221;-52
2023/09/02 06:51:11;;;;;;;2.53;1.70;;;19.40;74.40;20.50;101033.00;;;;5029810;28;20225;-52
2023/09/02 06:53:38;;;;;;;2.47;1.73;;;19.40;74.60;20.40;101034.00;;;;5030078;28;20186;-52
2023/09/02 06:56:12;;;;;;;2.07;1.60;;;19.40;74.70;20.50;101037.00;;;;5030631;28;20833;-52
2023/09/02 06:58:42;;;;;;;3.37;1.70;;;19.50;74.80;20.40;101049.00;;;;5029858;28;20615;-52
2023/09/02 07:01:24;;;;;;;2.87;1.60;;;19.40;74.70;20.40;101036.00;;;;5028331;28;20294;-52
2023/09/02 07:03:50;;;;;;;2.33;1.60;;;19.40;74.80;20.40;101054.00;;;;5017230;28;20186;-52
2023/09/02 07:06:16;;;;;;;2.00;1.77;;;19.40;74.80;20.40;101056.00;;;;5017588;28;20181;-52
2023/09/02 07:08:42;;;;;;;2.10;1.60;;;19.40;74.70;20.50;101058.00;;;;5030350;28;20178;-52
2023/09/02 07:11:11;;;;;;;1.83;1.37;;;19.40;74.80;20.40;101068.00;;;;5029967;28;20641;-52
2023/09/02 07:13:37;;;;;;;1.60;1.50;;;19.40;74.80;20.40;101071.00;;;;5009825;28;20644;-52
2023/09/02 07:16:04;;;;;;;2.17;1.57;;;19.40;74.70;20.40;101080.00;;;;5028004;28;20183;-52
2023/09/02 07:18:30;;;;;;;2.60;1.70;;;19.40;74.70;20.40;101081.00;;;;5030719;28;20180;-52
2023/09/02 07:21:04;;;;;;;1.50;1.40;;;19.50;74.80;20.40;101082.00;;;;5030198;28;20198;-52
2023/09/02 07:23:31;;;;;;;1.60;1.50;;;19.40;74.60;20.50;101087.00;;;;5038967;28;20199;-53
2023/09/02 07:25:59;;;;;;;1.47;1.37;;;19.50;74.80;20.40;101084.00;;;;5021509;28;20177;-52
2023/09/02 07:28:26;;;;;;;1.60;1.50;;;19.50;74.70;20.40;101096.00;;;;5031567;28;20220;-53
2023/09/02 07:30:52;;;;;;;2.43;1.77;;;19.40;74.60;20.40;101086.00;;;;5013257;28;20577;-52
2023/09/02 07:33:17;;;;;;;1.73;1.60;;;19.40;74.50;20.50;101091.00;;;;5031522;28;20183;-53
2023/09/02 07:35:43;;;;;;;1.30;1.30;;;19.50;74.70;20.50;101088.00;;;;5032242;28;20193;-52
2023/09/02 07:38:09;;;;;;;2.03;1.70;;;19.50;74.70;20.50;101104.00;;;;5034364;28;20201;-52
2023/09/02 07:40:35;;;;;;;1.60;1.50;;;19.40;74.70;20.40;101094.00;;;;5037766;28;20217;-51
2023/09/02 07:43:02;;;;;;;1.87;1.40;;;19.40;74.60;20.50;101077.00;;;;5030369;28;20210;-51
2023/09/02 07:45:28;;;;;;;1.60;1.50;;;19.40;74.70;20.50;101110.00;;;;5012888;28;20180;-52
2023/09/02 07:47:54;;;;;;;1.60;1.50;;;19.40;74.70;20.50;101132.00;;;;5030517;28;20228;-53
2023/09/02 07:50:20;;;;;;;2.57;1.50;;;19.50;74.80;20.50;101126.00;;;;5029698;28;20670;-52
2023/09/02 07:52:45;;;;;;;1.77;1.50;;;19.50;74.80;20.50;101062.00;;;;5029791;28;20185;-53
2023/09/02 07:55:11;;;;;;;1.90;1.30;;;19.40;74.70;20.50;101147.00;;;;5024238;28;20599;-53
2023/09/02 07:57:37;;;;;;;1.70;1.50;;;19.40;74.70;20.50;101149.00;;;;5029606;28;20185;-53
2023/09/02 08:00:03;;;;;;;1.67;1.30;;;19.40;74.80;20.50;101147.00;;;;5029166;28;20193;-52
2023/09/02 08:02:29;;;;;;;1.63;1.53;;;19.40;75.20;20.40;101146.00;;;;5020637;28;20245;-52
2023/09/02 08:04:55;;;;;;;1.60;1.50;;;19.40;75.30;20.40;101149.00;;;;5029602;28;20644;-52
2023/09/02 08:07:20;;;;;;;1.83;1.50;;;19.40;75.50;20.40;101154.00;;;;5012047;28;20174;-52
2023/09/02 08:09:49;;;;;;;2.53;1.67;;;19.40;75.60;20.40;101150.00;;;;5029246;28;20778;-52
2023/09/02 08:12:15;;;;;;;1.90;1.40;;;19.40;75.80;20.40;101145.00;;;;5029940;28;20184;-52
2023/09/02 08:14:40;;;;;;;1.70;1.60;;;19.40;75.80;20.40;101146.00;;;;5029378;28;20555;-52
2023/09/02 08:17:06;;;;;;;2.23;1.70;;;19.40;76.00;20.40;101150.00;;;;5029259;28;20177;-52
2023/09/02 08:19:32;;;;;;;2.63;1.70;;;19.40;76.00;20.40;101138.00;;;;5029024;28;20670;-53
2023/09/02 08:21:58;;;;;;;2.17;1.60;;;19.40;76.00;20.40;101136.00;;;;5028987;28;20208;-53
2023/09/02 08:24:23;;;;;;;1.47;1.37;;;19.50;76.10;20.40;101140.00;;;;5029362;28;20663;-52
2023/09/02 08:26:49;;;;;;;1.93;1.70;;;19.40;76.10;20.40;101139.00;;;;5029627;28;20183;-53
2023/09/02 08:29:15;;;;;;;1.70;1.60;;;19.40;76.00;20.40;101146.00;;;;5021050;28;20561;-53
2023/09/02 08:31:41;;;;;;;2.07;1.70;;;19.50;76.10;20.40;101140.00;;;;5025202;28;20205;-52
2023/09/02 08:34:06;;;;;;;1.70;1.60;;;19.40;76.10;20.40;101155.00;;;;5017626;28;20657;-52
2023/09/02 08:36:32;;;;;;;2.03;1.50;;;19.50;76.20;20.40;101155.00;;;;5028700;28;20186;-53
2023/09/02 08:38:58;;;;;;;1.67;1.57;;;19.50;76.00;20.40;101164.00;;;;5029097;28;20675;-53
2023/09/02 08:41:26;;;;;;;1.70;1.60;;;19.50;76.10;20.40;101162.00;;;;5031935;28;20212;-53
2023/09/02 08:43:53;;;;;;;3.30;1.90;;;19.50;76.10;20.40;101164.00;;;;5033353;28;20167;-52
2023/09/02 08:46:19;;;;;;;4.83;1.90;;;19.50;76.50;20.40;101168.00;;;;5033170;28;20178;-51
2023/09/02 08:48:45;;;;;;;3.80;1.90;;;19.50;76.80;20.40;101168.00;;;;5033059;28;20196;-52
2023/09/02 08:51:11;;;;;;;2.93;2.00;;;19.50;76.80;20.50;101167.00;;;;5014952;28;20195;-53
2023/09/02 08:53:38;;;;;;;4.13;2.00;;;19.60;78.00;20.50;101167.00;;;;5015757;28;20182;-52
2023/09/02 08:56:04;;;;;;;4.33;1.80;;;19.60;77.40;20.50;101174.00;;;;5015725;28;20167;-52
2023/09/02 08:58:29;;;;;;;4.10;2.10;;;19.60;77.40;20.50;101168.00;;;;5015115;28;20182;-50
2023/09/02 09:00:55;;;;;;;4.13;1.90;;;19.60;77.60;20.50;101162.00;;;;5032549;28;20215;-52
2023/09/02 09:03:21;;;;;;;4.97;2.00;;;19.60;77.50;20.50;101163.00;;;;5014991;28;20636;-51
2023/09/02 09:05:47;;;;;;;4.20;1.93;;;19.60;77.90;20.50;101164.00;;;;5032671;28;20662;-51
2023/09/02 09:08:13;;;;;;;5.47;2.10;;;19.60;77.80;20.50;101161.00;;;;5014928;28;20186;-52
2023/09/02 09:10:39;;;;;;;4.30;1.90;;;19.70;77.90;20.50;101167.00;;;;5014683;28;20716;-51
2023/09/02 09:13:05;;;;;;;3.60;2.07;;;19.70;77.80;20.50;101166.00;;;;5015023;28;20187;-51
2023/09/02 09:15:32;;;;;;;5.80;2.10;;;19.70;77.90;20.60;101161.00;;;;5015089;28;20177;-52
2023/09/02 09:17:58;;;;;;;2.00;1.80;;;19.70;78.00;20.60;101158.00;;;;5015038;28;20184;-52
2023/09/02 09:20:24;;;;;;;3.67;2.07;;;19.70;78.10;20.60;101144.00;;;;5014290;28;20199;-52
2023/09/02 09:22:50;;;;;;;3.63;1.90;;;19.70;77.90;20.60;101152.00;;;;5032060;28;20202;-53
2023/09/02 09:25:16;;;;;;;4.33;2.27;;;19.70;78.10;20.60;101155.00;;;;5044123;28;20198;-52
2023/09/02 09:27:42;;;;;;;6.40;1.90;;;19.80;78.30;20.60;101153.00;;;;5013494;28;20181;-52
2023/09/02 09:30:27;;;;;;;2.90;1.70;;;19.80;78.70;20.70;101155.00;;;;5015877;28;20186;-53
2023/09/02 09:32:58;;;;;;;3.63;2.07;;;19.80;79.10;20.70;101154.00;;;;5010149;28;20190;-52
2023/09/02 09:35:24;;;;;;;3.43;2.00;;;19.80;79.30;20.70;101152.00;;;;5034466;28;20185;-53
2023/09/02 09:37:56;;;;;;;2.97;1.90;;;19.80;79.30;20.70;101147.00;;;;5051478;28;20175;-54
2023/09/02 09:40:34;;;;;;;5.40;2.00;;;19.90;79.40;20.70;101157.00;;;;5036275;28;20199;-52
2023/09/02 09:43:01;;;;;;;2.53;1.90;;;19.80;79.40;20.70;101161.00;;;;5015610;28;20220;-51
2023/09/02 09:45:27;;;;;;;2.40;1.90;;;19.90;79.50;20.80;101150.00;;;;5032104;28;20206;-53
2023/09/02 09:48:09;;;;;;;2.97;1.93;;;19.90;79.60;20.80;101164.00;;;;5032177;28;20626;-53
2023/09/02 09:50:34;;;;;;;3.53;1.80;;;19.90;79.80;20.80;101167.00;;;;5025675;28;20715;-51
2023/09/02 09:53:02;;;;;;;2.67;1.60;;;19.90;79.80;20.90;101166.00;;;;5031359;28;20190;-52
2023/09/02 09:55:29;;;;;;;2.40;1.70;;;19.90;79.80;20.80;101173.00;;;;5032001;28;20193;-53
2023/09/02 09:57:55;;;;;;;2.47;1.87;;;19.90;79.80;20.80;101161.00;;;;5032089;28;20198;-51
2023/09/02 10:00:21;;;;;;;2.77;1.80;;;20.00;79.70;20.90;101156.00;;;;5031742;28;20304;-52
2023/09/02 10:02:55;;;;;;;2.77;1.77;;;20.00;79.80;20.90;101161.00;;;;5014707;28;20249;-52
2023/09/02 10:05:31;;;;;;;1.60;1.50;;;20.00;79.80;20.90;101164.00;;;;5032141;28;20171;-53
2023/09/02 10:08:04;;;;;;;3.20;1.70;;;20.00;79.90;20.90;101157.00;;;;5031931;28;20205;-52
2023/09/02 10:10:37;;;;;;;2.60;1.70;;;20.10;80.00;20.90;101163.00;;;;5031385;28;20203;-52
2023/09/02 10:13:03;;;;;;;5.70;1.70;;;20.00;79.80;20.90;101180.00;;;;5032087;28;20668;-52
2023/09/02 10:15:30;;;;;;;2.60;1.60;;;20.10;80.00;20.90;101169.00;;;;5032170;28;20184;-52
2023/09/02 10:18:05;;;;;;;2.03;1.73;;;20.10;80.00;21.00;101173.00;;;;5023736;28;20447;-53
2023/09/02 10:20:32;;;;;;;2.67;1.80;;;20.20;80.10;21.00;101176.00;;;;5031415;28;20294;-51
2023/09/02 10:23:09;;;;;;;1.77;1.63;;;20.10;80.10;21.00;101176.00;;;;5029401;28;20207;-53
2023/09/02 10:25:50;;;;;;;2.50;1.60;;;20.20;80.20;21.00;101181.00;;;;5031867;28;20183;-52
2023/09/02 10:28:38;;;;;;;2.30;1.53;;;20.20;80.20;21.00;101202.00;;;;5031658;28;20702;-51
2023/09/02 10:31:12;;;;;;;2.57;1.70;;;20.20;80.20;21.10;101205.00;;;;5017019;28;20198;-52
2023/09/02 10:34:18;;;;;;;2.20;1.87;;;20.30;80.30;21.10;101204.00;;;;5009034;28;20191;-52
2023/09/02 10:36:57;;;;;;;1.70;1.60;;;20.30;80.30;21.10;101209.00;;;;5014037;28;20249;-53
2023/09/02 10:39:41;;;;;;;1.67;1.57;;;20.30;80.30;21.10;101203.00;;;;5031150;28;20213;-52
2023/09/02 10:42:07;;;;;;;1.80;1.60;;;20.30;80.20;21.10;101204.00;;;;5014812;28;20207;-52
2023/09/02 10:44:33;;;;;;;3.77;1.70;;;20.40;80.40;21.20;101200.00;;;;5008179;28;20202;-52
2023/09/02 10:46:59;;;;;;;1.73;1.50;;;20.30;80.30;21.20;101199.00;;;;5031195;28;20175;-52
2023/09/02 10:49:24;;;;;;;2.10;1.90;;;20.40;80.40;21.20;101198.00;;;;5030490;28;20537;-53